• Join FlightAware (Why Join?)
  • Login
  • US Flag 
04:07AM EST


 

Airport Tracker/Info


-or-


 

Live Flight TrackerFlight Track Log ✈ AAL1862 ✈ 28-Jun-2013 ✈ KDFW - KSTL

Flight Track Log - Related Links

Times and Time Zones

All times are in EDT time to prevent confusion due to time zone crossing. See the AAL1862 flight status page for this flight to view local times or setup timezone preferences in your user account.

Time Position Orientation Groundspeed Altitude Reporting Facility
EDT Latitude Longitude Course Direction KTS MPH feet Rate Location/Type
07:32AM 32.8833 -97.0333 357° North 164 189 1,500  Level Dallas / Fort Worth TRACON
07:33AM 32.8333 -97.0167 164° South 219 252 3,600 2,820 Climbing Dallas / Fort Worth TRACON
07:34AM 32.8393 -96.8021 10° North  Level FlightAware Approximate
07:34AM 32.7667 -96.9833 157° South 270 311 7,200  Level Dallas / Fort Worth TRACON
07:35AM 32.9539 -96.8000 North  Level FlightAware Approximate
07:36AM 33.0686 -96.8001 357° North  Level FlightAware Approximate
07:36AM 32.9011 -96.8864 31° Northeast 254 292 13,400  Level Fort Worth Center
07:37AM 33.1831 -96.8083 357° North  Level FlightAware Approximate
07:37AM 33.0033 -96.8758 North 320 368 16,200  Level Fort Worth Center
07:38AM 33.1203 -96.8653 North 365 420 19,700 2,880 Climbing Fort Worth Center
07:39AM 33.2286 -96.8522 North 389 448 22,000 1,920 Climbing Fort Worth Center
07:40AM 33.3331 -96.8367 North 404 465 23,600 1,800 Climbing Fort Worth Center
07:41AM 33.4328 -96.7664 30° Northeast 409 471 25,700 2,100 Climbing Fort Worth Center
07:42AM 33.5306 -96.6733 38° Northeast 417 480 27,900 2,160 Climbing Fort Worth Center
07:43AM 33.6342 -96.5853 35° Northeast 440 506 30,100 2,160 Climbing Fort Worth Center
07:44AM 33.7339 -96.5019 35° Northeast 440 506 32,300 1,980 Climbing Fort Worth Center
07:45AM 33.8314 -96.4208 35° Northeast 440 506 34,100 1,620 Climbing Fort Worth Center
07:46AM 33.9267 -96.3447 34° Northeast 429 494 35,600 1,260 Climbing Fort Worth Center
07:47AM 34.0242 -96.2633 35° Northeast 424 488 36,700 660 Climbing Fort Worth Center
07:48AM 34.1131 -96.1894 35° Northeast 411 473 37,000 120 Climbing Fort Worth Center
07:49AM 34.2125 -96.1075 34° Northeast 411 473 37,000  Level Fort Worth Center
07:50AM 34.3097 -96.0231 36° Northeast 423 487 37,000  Level Fort Worth Center
07:51AM 34.4069 -95.9436 34° Northeast 423 487 37,000  Level Fort Worth Center
07:52AM 34.5039 -95.8611 35° Northeast 423 487 37,000  Level Fort Worth Center
07:53AM 34.6031 -95.7786 34° Northeast 423 487 37,000  Level Fort Worth Center
07:54AM 34.7000 -95.6986 34° Northeast 423 487 37,000  Level Fort Worth Center
07:55AM 34.8011 -95.6131 35° Northeast 423 487 37,000  Level Fort Worth Center
07:56AM 34.8958 -95.5325 35° Northeast 418 481 37,000  Level Fort Worth Center
07:57AM 34.9947 -95.4494 35° Northeast 418 481 37,000  Level Fort Worth Center
07:59AM 35.1703 -95.2975 35° Northeast 425 489 37,000  Level Memphis Center
08:00AM 35.2656 -95.2092 37° Northeast 430 495 37,000  Level Memphis Center
08:01AM 35.3586 -95.1178 39° Northeast 430 495 37,000  Level Memphis Center
08:02AM 35.4519 -95.0264 39° Northeast 430 495 37,000  Level Memphis Center
08:03AM 35.5469 -94.9372 37° Northeast 425 489 37,000  Level Memphis Center
08:04AM 35.6400 -94.8453 39° Northeast 425 489 37,000  Level Memphis Center
08:05AM 35.7350 -94.7558 37° Northeast 425 489 37,000  Level Memphis Center
08:06AM 35.8297 -94.6661 38° Northeast 425 489 37,000  Level Memphis Center
08:07AM 35.9247 -94.5736 38° Northeast 425 489 37,000  Level Memphis Center
08:09AM 36.1478 -94.3528 39° Northeast 436 502 37,000  Level Kansas City Center
08:10AM 36.2425 -94.2597 38° Northeast 437 503 37,000  Level Kansas City Center
08:11AM 36.3381 -94.1661 38° Northeast 438 504 37,000  Level Kansas City Center
08:12AM 36.4339 -94.0722 38° Northeast 438 504 37,000  Level Kansas City Center
08:13AM 36.5261 -93.9794 39° Northeast 433 498 37,000  Level Kansas City Center
08:14AM 36.6217 -93.8847 38° Northeast 435 501 37,000  Level Kansas City Center
08:15AM 36.7172 -93.7889 39° Northeast 439 505 37,000  Level Kansas City Center
08:16AM 36.8244 -93.6839 38° Northeast 438 504 37,000  Level Kansas City Center
08:17AM 36.9256 -93.5819 39° Northeast 439 505 37,000  Level Kansas City Center
08:18AM 37.0442 -93.5569 10° North 434 499 37,000  Level Kansas City Center
08:19AM 37.1628 -93.5469 North 429 494 37,000  Level Kansas City Center
08:20AM 37.2842 -93.5267 North 433 498 37,000  Level Kansas City Center
08:21AM 37.3786 -93.4256 40° Northeast 445 512 37,000  Level Kansas City Center
08:22AM 37.4692 -93.3158 44° Northeast 448 516 37,000  Level Kansas City Center
08:23AM 37.5583 -93.2056 44° Northeast 448 516 37,000  Level Kansas City Center
08:24AM 37.6472 -93.0947 45° Northeast 448 516 37,000  Level Kansas City Center
08:25AM 37.7347 -92.9817 46° Northeast 448 516 37,000  Level Kansas City Center
08:26AM 37.8225 -92.8697 45° Northeast 447 514 37,000 -300 Level Kansas City Center
08:28AM 37.9117 -92.7564 45° Northeast 448 516 36,400 -960 Descending Kansas City Center
08:29AM 38.0031 -92.6397 45° Northeast 453 521 35,100 -1,320 Descending Kansas City Center
08:30AM 38.0917 -92.5258 45° Northeast 453 521 33,700 -1,560 Descending Kansas City Center
08:31AM 38.1969 -92.3908 45° Northeast 450 518 32,000 -1,560 Descending Kansas City Center
08:32AM 38.2886 -92.2694 46° Northeast 454 522 30,600 -1,440 Descending Kansas City Center
08:33AM 38.3458 -92.1250 63° Northeast 455 524 29,100 -1,620 Descending Kansas City Center
08:34AM 38.3981 -91.9800 65° Northeast 449 517 27,300 -1,860 Descending Kansas City Center
08:35AM 38.4508 -91.8425 64° Northeast 436 502 25,300 -2,040 Descending Kansas City Center
08:36AM 38.5014 -91.7089 64° Northeast 422 486 23,200 -2,340 Descending Kansas City Center
08:37AM 38.5497 -91.5808 64° Northeast 406 467 20,600 -2,400 Descending Kansas City Center
08:38AM 38.5978 -91.4536 64° Northeast 398 458 18,400 -2,160 Descending Kansas City Center
08:39AM 38.6400 -91.3453 63° Northeast 382 440 16,200 -1,680 Descending Kansas City Center
08:40AM 38.6914 -91.2022 65° Northeast 372 428 15,000 -600 Descending Kansas City Center
08:41AM 38.6931 -91.0647 89° East 388 447 15,000  Level Kansas City Center
08:42AM 38.6936 -90.9275 90° East 386 444 15,000 -600 Level Kansas City Center
08:43AM 38.7014 -90.7953 86° East 377 434 13,800 -1,320 Descending Kansas City Center
08:44AM 38.7075 -90.6758 86° East 346 398 12,400 -1,500 Descending Kansas City Center
08:45AM 38.7122 -90.5597 87° East 331 381 10,700 -2,160 Descending Kansas City Center
08:46AM 38.6936 -90.4539 103° East 322 371 8,000 -2,340 Descending Kansas City Center
08:47AM 38.6444 -90.3542 122° Southeast 300 345 6,000 -1,440 Descending Kansas City Center
08:48AM 38.6050 -90.2775 123° Southeast 278 320 5,100 -540 Descending Kansas City Center
08:49AM 38.5725 -90.2053 120° Southeast 258 297 5,000 -60 Descending Kansas City Center
08:50AM 38.5489 -90.1331 113° Southeast 232 267 5,000 -300 Level Kansas City Center
08:51AM 38.5961 -90.1061 24° Northeast 205 236 4,500 -540 Descending Kansas City Center